TAF and METAR

Could not understand the following METAR

YCIN 191500Z AUTO 03005KT 9999 // NCD 26/24 Q1007

TAF for RAAF Base Curtin Airport

TAF YCIN 191206Z 1914/2002 36007KT CAVOK FM192000 01005KT 9999 BKN018 FM200000 36010KT CAVOK
Report created 19. mar 13:06

between 19. mar 15:00 - 20. mar 03:00

wind 7 knots from N (360°) Clear sky

From 19. mar 21:00

wind 5 knots from N (010°) visibility > 10km broken clouds (~75% cover) at 1800 feet

From 20. mar 01:00

wind 10 knots from N (360°) Clear sky
RAAF Base Curtin Airport in Australia at 91m

Latest 5 airports